sensor_id;sensor_type;location;lat;lon;timestamp;temperature;humidity
2407;DHT22;37709;53.480;9.688;2022-11-13T00:02:28;1.80;99.90
2407;DHT22;37709;53.480;9.688;2022-11-13T00:05:14;1.80;99.90
2407;DHT22;37709;53.480;9.688;2022-11-13T00:07:59;1.80;99.90
2407;DHT22;37709;53.480;9.688;2022-11-13T00:10:45;1.70;99.90
2407;DHT22;37709;53.480;9.688;2022-11-13T00:13:32;1.70;99.90
2407;DHT22;37709;53.480;9.688;2022-11-13T00:16:20;1.70;99.90
2407;DHT22;37709;53.480;9.688;2022-11-13T00:19:06;1.70;99.90
2407;DHT22;37709;53.480;9.688;2022-11-13T00:21:52;1.80;99.90
2407;DHT22;37709;53.480;9.688;2022-11-13T00:24:39;1.70;99.90
2407;DHT22;37709;53.480;9.688;2022-11-13T00:27:25;1.70;99.90
2407;DHT22;37709;53.480;9.688;2022-11-13T00:30:11;1.60;99.90
2407;DHT22;37709;53.480;9.688;2022-11-13T00:33:03;1.50;99.90
2407;DHT22;37709;53.480;9.688;2022-11-13T00:35:50;1.50;99.90
2407;DHT22;37709;53.480;9.688;2022-11-13T00:38:36;1.50;99.90
2407;DHT22;37709;53.480;9.688;2022-11-13T00:41:22;1.50;99.90
2407;DHT22;37709;53.480;9.688;2022-11-13T00:44:08;1.50;99.90
2407;DHT22;37709;53.480;9.688;2022-11-13T00:46:54;1.40;99.90
2407;DHT22;37709;53.480;9.688;2022-11-13T00:49:40;1.40;99.90
2407;DHT22;37709;53.480;9.688;2022-11-13T00:52:26;1.40;99.90
2407;DHT22;37709;53.480;9.688;2022-11-13T00:55:12;1.40;99.90
2407;DHT22;37709;53.480;9.688;2022-11-13T00:57:58;1.30;99.90
2407;DHT22;37709;53.480;9.688;2022-11-13T01:00:45;1.30;99.90
2407;DHT22;37709;53.480;9.688;2022-11-13T01:03:31;1.20;99.90
2407;DHT22;37709;53.480;9.688;2022-11-13T01:06:25;1.10;99.90
2407;DHT22;37709;53.480;9.688;2022-11-13T01:09:12;1.10;99.90
2407;DHT22;37709;53.480;9.688;2022-11-13T01:11:57;1.10;99.90
2407;DHT22;37709;53.480;9.688;2022-11-13T01:14:43;1.10;99.90
2407;DHT22;37709;53.480;9.688;2022-11-13T01:17:30;1.00;99.90
2407;DHT22;37709;53.480;9.688;2022-11-13T01:20:16;1.10;99.90
2407;DHT22;37709;53.480;9.688;2022-11-13T01:23:03;1.10;99.90
2407;DHT22;37709;53.480;9.688;2022-11-13T01:25:49;1.10;99.90
2407;DHT22;37709;53.480;9.688;2022-11-13T01:28:35;1.10;99.90
2407;DHT22;37709;53.480;9.688;2022-11-13T01:31:24;1.20;99.90
2407;DHT22;37709;53.480;9.688;2022-11-13T01:34:10;1.10;99.90
2407;DHT22;37709;53.480;9.688;2022-11-13T01:36:56;1.10;99.90
2407;DHT22;37709;53.480;9.688;2022-11-13T01:39:42;1.10;99.90
2407;DHT22;37709;53.480;9.688;2022-11-13T01:42:28;1.30;99.90
2407;DHT22;37709;53.480;9.688;2022-11-13T01:45:48;1.40;99.90
2407;DHT22;37709;53.480;9.688;2022-11-13T01:48:50;1.40;99.90
2407;DHT22;37709;53.480;9.688;2022-11-13T01:51:46;1.40;99.90
2407;DHT22;37709;53.480;9.688;2022-11-13T01:54:37;1.30;99.90
2407;DHT22;37709;53.480;9.688;2022-11-13T01:57:25;1.30;99.90
2407;DHT22;37709;53.480;9.688;2022-11-13T02:00:11;1.30;99.90
2407;DHT22;37709;53.480;9.688;2022-11-13T02:02:57;1.30;99.90
2407;DHT22;37709;53.480;9.688;2022-11-13T02:05:43;1.40;99.90
2407;DHT22;37709;53.480;9.688;2022-11-13T02:08:29;1.50;99.90
2407;DHT22;37709;53.480;9.688;2022-11-13T02:11:16;1.60;99.90
2407;DHT22;37709;53.480;9.688;2022-11-13T02:14:03;1.60;99.90
2407;DHT22;37709;53.480;9.688;2022-11-13T02:16:52;1.50;99.90
2407;DHT22;37709;53.480;9.688;2022-11-13T02:19:44;1.50;99.90
2407;DHT22;37709;53.480;9.688;2022-11-13T02:22:51;1.60;99.90
2407;DHT22;37709;53.480;9.688;2022-11-13T02:25:40;1.70;99.90
2407;DHT22;37709;53.480;9.688;2022-11-13T02:28:27;1.90;99.90
2407;DHT22;37709;53.480;9.688;2022-11-13T02:31:13;2.00;99.90
2407;DHT22;37709;53.480;9.688;2022-11-13T02:34:02;2.20;99.90
2407;DHT22;37709;53.480;9.688;2022-11-13T02:36:49;2.30;99.90
2407;DHT22;37709;53.480;9.688;2022-11-13T02:39:35;2.50;99.90
2407;DHT22;37709;53.480;9.688;2022-11-13T02:42:20;2.60;99.90
2407;DHT22;37709;53.480;9.688;2022-11-13T02:45:07;2.60;99.90
2407;DHT22;37709;53.480;9.688;2022-11-13T02:47:53;2.70;99.90
2407;DHT22;37709;53.480;9.688;2022-11-13T02:50:39;2.70;99.90
2407;DHT22;37709;53.480;9.688;2022-11-13T02:53:25;2.80;99.90
2407;DHT22;37709;53.480;9.688;2022-11-13T02:56:12;2.90;99.90
2407;DHT22;37709;53.480;9.688;2022-11-13T02:58:58;2.90;99.90
2407;DHT22;37709;53.480;9.688;2022-11-13T03:01:43;2.80;99.90
2407;DHT22;37709;53.480;9.688;2022-11-13T03:04:31;2.80;99.90
2407;DHT22;37709;53.480;9.688;2022-11-13T03:07:37;2.80;99.90
2407;DHT22;37709;53.480;9.688;2022-11-13T03:10:23;2.70;99.90
2407;DHT22;37709;53.480;9.688;2022-11-13T03:13:08;2.70;99.90
2407;DHT22;37709;53.480;9.688;2022-11-13T03:15:54;2.80;99.90
2407;DHT22;37709;53.480;9.688;2022-11-13T03:18:40;2.80;99.90
2407;DHT22;37709;53.480;9.688;2022-11-13T03:21:26;2.80;99.90
2407;DHT22;37709;53.480;9.688;2022-11-13T03:24:12;2.70;99.90
2407;DHT22;37709;53.480;9.688;2022-11-13T03:26:58;2.60;99.90
2407;DHT22;37709;53.480;9.688;2022-11-13T03:29:43;2.50;99.90
2407;DHT22;37709;53.480;9.688;2022-11-13T03:32:30;2.50;99.90
2407;DHT22;37709;53.480;9.688;2022-11-13T03:35:16;2.50;99.90
2407;DHT22;37709;53.480;9.688;2022-11-13T03:38:01;2.40;99.90
2407;DHT22;37709;53.480;9.688;2022-11-13T03:40:48;2.30;99.90
2407;DHT22;37709;53.480;9.688;2022-11-13T03:43:34;2.20;99.90
2407;DHT22;37709;53.480;9.688;2022-11-13T03:46:20;2.10;99.90
2407;DHT22;37709;53.480;9.688;2022-11-13T03:49:06;2.00;99.90
2407;DHT22;37709;53.480;9.688;2022-11-13T03:51:52;2.00;99.90
2407;DHT22;37709;53.480;9.688;2022-11-13T03:54:37;1.90;99.90
2407;DHT22;37709;53.480;9.688;2022-11-13T03:57:23;1.80;99.90
2407;DHT22;37709;53.480;9.688;2022-11-13T04:00:10;1.70;99.90
2407;DHT22;37709;53.480;9.688;2022-11-13T04:02:56;1.70;99.90
2407;DHT22;37709;53.480;9.688;2022-11-13T04:05:43;1.60;99.90
2407;DHT22;37709;53.480;9.688;2022-11-13T04:08:28;1.60;99.90
2407;DHT22;37709;53.480;9.688;2022-11-13T04:11:15;1.60;99.90
2407;DHT22;37709;53.480;9.688;2022-11-13T04:14:01;1.60;99.90
2407;DHT22;37709;53.480;9.688;2022-11-13T04:16:47;1.50;99.90
2407;DHT22;37709;53.480;9.688;2022-11-13T04:19:32;1.40;99.90
2407;DHT22;37709;53.480;9.688;2022-11-13T04:22:19;1.40;99.90
2407;DHT22;37709;53.480;9.688;2022-11-13T04:25:05;1.50;99.90
2407;DHT22;37709;53.480;9.688;2022-11-13T04:27:52;1.50;99.90
2407;DHT22;37709;53.480;9.688;2022-11-13T04:30:38;1.50;99.90
2407;DHT22;37709;53.480;9.688;2022-11-13T04:33:24;1.40;99.90
2407;DHT22;37709;53.480;9.688;2022-11-13T04:36:10;1.40;99.90
2407;DHT22;37709;53.480;9.688;2022-11-13T04:38:56;1.30;99.90
2407;DHT22;37709;53.480;9.688;2022-11-13T04:41:42;1.20;99.90
2407;DHT22;37709;53.480;9.688;2022-11-13T04:44:46;1.20;99.90
2407;DHT22;37709;53.480;9.688;2022-11-13T04:47:32;1.20;99.90
2407;DHT22;37709;53.480;9.688;2022-11-13T04:50:18;1.20;99.90
2407;DHT22;37709;53.480;9.688;2022-11-13T04:53:04;1.20;99.90
2407;DHT22;37709;53.480;9.688;2022-11-13T04:55:52;1.10;99.90
2407;DHT22;37709;53.480;9.688;2022-11-13T04:58:38;1.00;99.90
2407;DHT22;37709;53.480;9.688;2022-11-13T05:01:24;0.90;99.90
2407;DHT22;37709;53.480;9.688;2022-11-13T05:04:14;0.90;99.90
2407;DHT22;37709;53.480;9.688;2022-11-13T05:07:00;0.90;99.90
2407;DHT22;37709;53.480;9.688;2022-11-13T05:09:46;0.90;99.90
2407;DHT22;37709;53.480;9.688;2022-11-13T05:12:32;0.90;99.90
2407;DHT22;37709;53.480;9.688;2022-11-13T05:15:18;0.90;99.90
2407;DHT22;37709;53.480;9.688;2022-11-13T05:18:04;0.90;99.90
2407;DHT22;37709;53.480;9.688;2022-11-13T05:20:51;0.90;99.90
2407;DHT22;37709;53.480;9.688;2022-11-13T05:23:37;0.90;99.90
2407;DHT22;37709;53.480;9.688;2022-11-13T05:26:23;0.90;99.90
2407;DHT22;37709;53.480;9.688;2022-11-13T05:29:10;0.90;99.90
2407;DHT22;37709;53.480;9.688;2022-11-13T05:31:56;0.90;99.90
2407;DHT22;37709;53.480;9.688;2022-11-13T05:34:43;1.00;99.90
2407;DHT22;37709;53.480;9.688;2022-11-13T05:37:28;1.00;99.90
2407;DHT22;37709;53.480;9.688;2022-11-13T05:40:15;0.90;99.90
2407;DHT22;37709;53.480;9.688;2022-11-13T05:43:01;0.90;99.90
2407;DHT22;37709;53.480;9.688;2022-11-13T05:45:47;0.90;99.90
2407;DHT22;37709;53.480;9.688;2022-11-13T05:48:34;1.00;99.90
2407;DHT22;37709;53.480;9.688;2022-11-13T05:51:23;1.00;99.90
2407;DHT22;37709;53.480;9.688;2022-11-13T05:54:10;1.00;99.90
2407;DHT22;37709;53.480;9.688;2022-11-13T05:56:56;1.10;99.90
2407;DHT22;37709;53.480;9.688;2022-11-13T05:59:42;1.20;99.90
2407;DHT22;37709;53.480;9.688;2022-11-13T06:02:28;1.30;99.90
2407;DHT22;37709;53.480;9.688;2022-11-13T06:05:14;1.30;99.90
2407;DHT22;37709;53.480;9.688;2022-11-13T06:08:00;1.40;99.90
2407;DHT22;37709;53.480;9.688;2022-11-13T06:10:46;1.50;99.90
2407;DHT22;37709;53.480;9.688;2022-11-13T06:13:33;1.50;99.90
2407;DHT22;37709;53.480;9.688;2022-11-13T06:16:25;1.60;99.90
2407;DHT22;37709;53.480;9.688;2022-11-13T06:19:11;1.60;99.90
2407;DHT22;37709;53.480;9.688;2022-11-13T06:21:58;1.60;99.90
2407;DHT22;37709;53.480;9.688;2022-11-13T06:24:44;1.70;99.90
2407;DHT22;37709;53.480;9.688;2022-11-13T06:27:30;1.80;99.90
2407;DHT22;37709;53.480;9.688;2022-11-13T06:30:16;2.00;99.90
2407;DHT22;37709;53.480;9.688;2022-11-13T06:33:03;2.10;99.90
2407;DHT22;37709;53.480;9.688;2022-11-13T06:35:48;2.30;99.90
2407;DHT22;37709;53.480;9.688;2022-11-13T06:38:36;2.30;99.90
2407;DHT22;37709;53.480;9.688;2022-11-13T06:41:25;2.30;99.90
2407;DHT22;37709;53.480;9.688;2022-11-13T06:44:11;2.30;99.90
2407;DHT22;37709;53.480;9.688;2022-11-13T06:46:57;2.30;99.90
2407;DHT22;37709;53.480;9.688;2022-11-13T06:49:43;2.40;99.90
2407;DHT22;37709;53.480;9.688;2022-11-13T06:52:29;2.30;99.90
2407;DHT22;37709;53.480;9.688;2022-11-13T06:55:15;2.30;99.90
2407;DHT22;37709;53.480;9.688;2022-11-13T06:58:01;2.30;99.90
2407;DHT22;37709;53.480;9.688;2022-11-13T07:00:47;2.30;99.90
2407;DHT22;37709;53.480;9.688;2022-11-13T07:03:33;2.40;99.90
2407;DHT22;37709;53.480;9.688;2022-11-13T07:06:22;2.40;99.90
2407;DHT22;37709;53.480;9.688;2022-11-13T07:09:08;2.40;99.90
2407;DHT22;37709;53.480;9.688;2022-11-13T07:11:54;2.50;99.90
2407;DHT22;37709;53.480;9.688;2022-11-13T07:14:40;2.50;99.90
2407;DHT22;37709;53.480;9.688;2022-11-13T07:17:27;2.60;99.90
2407;DHT22;37709;53.480;9.688;2022-11-13T07:20:13;2.70;99.90
2407;DHT22;37709;53.480;9.688;2022-11-13T07:23:01;2.60;99.90
2407;DHT22;37709;53.480;9.688;2022-11-13T07:25:47;2.60;99.90
2407;DHT22;37709;53.480;9.688;2022-11-13T07:28:33;2.70;99.90
2407;DHT22;37709;53.480;9.688;2022-11-13T07:31:19;2.70;99.90
2407;DHT22;37709;53.480;9.688;2022-11-13T07:34:06;2.70;99.90
2407;DHT22;37709;53.480;9.688;2022-11-13T07:36:52;2.60;99.90
2407;DHT22;37709;53.480;9.688;2022-11-13T07:39:38;2.60;99.90
2407;DHT22;37709;53.480;9.688;2022-11-13T07:42:24;2.60;99.90
2407;DHT22;37709;53.480;9.688;2022-11-13T07:45:10;2.60;99.90
2407;DHT22;37709;53.480;9.688;2022-11-13T07:47:57;2.70;99.90
2407;DHT22;37709;53.480;9.688;2022-11-13T07:50:44;2.80;99.90
2407;DHT22;37709;53.480;9.688;2022-11-13T07:53:30;3.00;99.90
2407;DHT22;37709;53.480;9.688;2022-11-13T07:56:16;3.50;99.90
2407;DHT22;37709;53.480;9.688;2022-11-13T07:59:07;3.50;99.90
2407;DHT22;37709;53.480;9.688;2022-11-13T08:01:53;3.50;99.90
2407;DHT22;37709;53.480;9.688;2022-11-13T08:04:39;3.70;99.90
2407;DHT22;37709;53.480;9.688;2022-11-13T08:07:25;4.10;99.90
2407;DHT22;37709;53.480;9.688;2022-11-13T08:10:11;4.20;99.90
2407;DHT22;37709;53.480;9.688;2022-11-13T08:13:05;4.40;99.90
2407;DHT22;37709;53.480;9.688;2022-11-13T08:15:51;4.60;99.90
2407;DHT22;37709;53.480;9.688;2022-11-13T08:18:37;4.70;99.90
2407;DHT22;37709;53.480;9.688;2022-11-13T08:21:24;4.80;99.90
2407;DHT22;37709;53.480;9.688;2022-11-13T08:24:10;5.00;99.90
2407;DHT22;37709;53.480;9.688;2022-11-13T08:26:56;5.10;99.90
2407;DHT22;37709;53.480;9.688;2022-11-13T08:29:43;5.30;99.90
2407;DHT22;37709;53.480;9.688;2022-11-13T08:32:29;5.50;99.90
2407;DHT22;37709;53.480;9.688;2022-11-13T08:35:15;6.30;99.90
2407;DHT22;37709;53.480;9.688;2022-11-13T08:38:07;9.00;99.90
2407;DHT22;37709;53.480;9.688;2022-11-13T08:41:00;11.10;99.90
2407;DHT22;37709;53.480;9.688;2022-11-13T08:43:54;12.30;99.90
2407;DHT22;37709;53.480;9.688;2022-11-13T08:46:40;13.20;99.90
2407;DHT22;37709;53.480;9.688;2022-11-13T08:49:26;13.60;99.90
2407;DHT22;37709;53.480;9.688;2022-11-13T08:52:14;14.10;99.90
2407;DHT22;37709;53.480;9.688;2022-11-13T08:55:00;14.30;99.90
2407;DHT22;37709;53.480;9.688;2022-11-13T08:57:46;14.90;99.90
2407;DHT22;37709;53.480;9.688;2022-11-13T09:00:32;15.30;99.90
2407;DHT22;37709;53.480;9.688;2022-11-13T09:03:19;15.10;99.90
2407;DHT22;37709;53.480;9.688;2022-11-13T09:06:06;15.20;99.90
2407;DHT22;37709;53.480;9.688;2022-11-13T09:08:52;15.90;99.90
2407;DHT22;37709;53.480;9.688;2022-11-13T09:11:38;16.40;99.90
2407;DHT22;37709;53.480;9.688;2022-11-13T09:14:24;16.70;99.90
2407;DHT22;37709;53.480;9.688;2022-11-13T09:17:10;16.50;99.90
2407;DHT22;37709;53.480;9.688;2022-11-13T09:19:56;16.40;99.90
2407;DHT22;37709;53.480;9.688;2022-11-13T09:22:55;15.90;99.90
2407;DHT22;37709;53.480;9.688;2022-11-13T09:25:42;16.50;99.90
2407;DHT22;37709;53.480;9.688;2022-11-13T09:28:28;17.30;99.90
2407;DHT22;37709;53.480;9.688;2022-11-13T09:31:15;18.20;99.90
2407;DHT22;37709;53.480;9.688;2022-11-13T09:34:01;18.20;99.90
2407;DHT22;37709;53.480;9.688;2022-11-13T09:36:48;18.30;99.90
2407;DHT22;37709;53.480;9.688;2022-11-13T09:39:34;18.30;99.90
2407;DHT22;37709;53.480;9.688;2022-11-13T09:42:23;18.40;99.90
2407;DHT22;37709;53.480;9.688;2022-11-13T09:45:13;19.00;99.60
2407;DHT22;37709;53.480;9.688;2022-11-13T09:48:28;19.30;97.20
2407;DHT22;37709;53.480;9.688;2022-11-13T09:51:19;19.30;95.10
2407;DHT22;37709;53.480;9.688;2022-11-13T09:54:11;19.10;96.10
2407;DHT22;37709;53.480;9.688;2022-11-13T09:57:22;19.30;93.80
2407;DHT22;37709;53.480;9.688;2022-11-13T10:00:16;20.10;92.60
2407;DHT22;37709;53.480;9.688;2022-11-13T10:03:12;20.50;91.80
2407;DHT22;37709;53.480;9.688;2022-11-13T10:06:35;20.60;91.50
2407;DHT22;37709;53.480;9.688;2022-11-13T10:12:19;20.70;90.00
2407;DHT22;37709;53.480;9.688;2022-11-13T10:15:08;20.70;90.30
2407;DHT22;37709;53.480;9.688;2022-11-13T10:18:05;20.20;89.10
2407;DHT22;37709;53.480;9.688;2022-11-13T10:21:15;19.00;90.60
2407;DHT22;37709;53.480;9.688;2022-11-13T10:24:09;18.30;91.40
2407;DHT22;37709;53.480;9.688;2022-11-13T10:26:59;18.00;91.90
2407;DHT22;37709;53.480;9.688;2022-11-13T10:29:45;17.30;92.70
2407;DHT22;37709;53.480;9.688;2022-11-13T10:32:33;17.40;92.10
2407;DHT22;37709;53.480;9.688;2022-11-13T10:35:52;16.60;92.70
2407;DHT22;37709;53.480;9.688;2022-11-13T10:38:42;15.20;94.20
2407;DHT22;37709;53.480;9.688;2022-11-13T10:41:29;13.80;96.70
2407;DHT22;37709;53.480;9.688;2022-11-13T10:44:33;13.50;98.10
2407;DHT22;37709;53.480;9.688;2022-11-13T10:47:24;13.40;99.20
2407;DHT22;37709;53.480;9.688;2022-11-13T10:50:30;14.50;99.10
2407;DHT22;37709;53.480;9.688;2022-11-13T10:53:17;16.20;96.20
2407;DHT22;37709;53.480;9.688;2022-11-13T10:56:25;15.20;97.30
2407;DHT22;37709;53.480;9.688;2022-11-13T10:59:13;14.00;99.00
2407;DHT22;37709;53.480;9.688;2022-11-13T11:02:17;13.20;99.90
2407;DHT22;37709;53.480;9.688;2022-11-13T11:05:20;12.60;99.90
2407;DHT22;37709;53.480;9.688;2022-11-13T11:08:09;12.00;99.90
2407;DHT22;37709;53.480;9.688;2022-11-13T11:11:16;11.60;99.90
2407;DHT22;37709;53.480;9.688;2022-11-13T11:14:24;11.30;99.90
2407;DHT22;37709;53.480;9.688;2022-11-13T11:17:13;11.10;99.90
2407;DHT22;37709;53.480;9.688;2022-11-13T11:23:18;10.80;99.90
2407;DHT22;37709;53.480;9.688;2022-11-13T11:26:12;11.10;99.90
2407;DHT22;37709;53.480;9.688;2022-11-13T11:29:15;11.20;99.90
2407;DHT22;37709;53.480;9.688;2022-11-13T11:32:15;11.10;99.90
2407;DHT22;37709;53.480;9.688;2022-11-13T11:38:20;10.70;99.90
2407;DHT22;37709;53.480;9.688;2022-11-13T11:41:11;10.80;99.90
2407;DHT22;37709;53.480;9.688;2022-11-13T11:44:17;10.70;99.90
2407;DHT22;37709;53.480;9.688;2022-11-13T11:47:13;10.40;99.90
2407;DHT22;37709;53.480;9.688;2022-11-13T11:50:00;10.50;99.90
2407;DHT22;37709;53.480;9.688;2022-11-13T11:53:14;10.50;99.90
2407;DHT22;37709;53.480;9.688;2022-11-13T12:02:40;10.30;99.90
2407;DHT22;37709;53.480;9.688;2022-11-13T12:05:47;10.20;99.90
2407;DHT22;37709;53.480;9.688;2022-11-13T12:12:02;10.00;99.90
2407;DHT22;37709;53.480;9.688;2022-11-13T12:15:09;9.60;99.90
2407;DHT22;37709;53.480;9.688;2022-11-13T12:21:12;9.50;99.90
2407;DHT22;37709;53.480;9.688;2022-11-13T12:27:25;9.50;99.90
2407;DHT22;37709;53.480;9.688;2022-11-13T12:30:23;9.50;99.90
2407;DHT22;37709;53.480;9.688;2022-11-13T12:33:28;9.40;99.90
2407;DHT22;37709;53.480;9.688;2022-11-13T12:36:18;9.30;99.90
2407;DHT22;37709;53.480;9.688;2022-11-13T12:51:00;9.10;99.90
2407;DHT22;37709;53.480;9.688;2022-11-13T12:53:49;9.20;99.90
2407;DHT22;37709;53.480;9.688;2022-11-13T12:56:36;9.20;99.90
2407;DHT22;37709;53.480;9.688;2022-11-13T13:05:26;9.10;99.90
2407;DHT22;37709;53.480;9.688;2022-11-13T13:08:38;9.10;99.90
2407;DHT22;37709;53.480;9.688;2022-11-13T13:20:02;9.00;99.90
2407;DHT22;37709;53.480;9.688;2022-11-13T13:22:56;9.00;99.90
2407;DHT22;37709;53.480;9.688;2022-11-13T13:25:42;8.90;99.90
2407;DHT22;37709;53.480;9.688;2022-11-13T13:28:29;8.70;99.90
2407;DHT22;37709;53.480;9.688;2022-11-13T13:34:22;8.60;99.90
2407;DHT22;37709;53.480;9.688;2022-11-13T13:37:42;8.60;99.90
2407;DHT22;37709;53.480;9.688;2022-11-13T13:46:25;8.50;99.90
2407;DHT22;37709;53.480;9.688;2022-11-13T13:49:15;8.50;99.90
2407;DHT22;37709;53.480;9.688;2022-11-13T13:52:03;8.40;99.90
2407;DHT22;37709;53.480;9.688;2022-11-13T13:54:50;8.40;99.90
2407;DHT22;37709;53.480;9.688;2022-11-13T13:57:40;8.40;99.90
2407;DHT22;37709;53.480;9.688;2022-11-13T14:00:26;8.50;99.90
2407;DHT22;37709;53.480;9.688;2022-11-13T14:03:19;8.50;99.90
2407;DHT22;37709;53.480;9.688;2022-11-13T14:06:20;8.50;99.90
2407;DHT22;37709;53.480;9.688;2022-11-13T14:09:14;8.50;99.90
2407;DHT22;37709;53.480;9.688;2022-11-13T14:12:04;8.50;99.90
2407;DHT22;37709;53.480;9.688;2022-11-13T14:14:54;8.50;99.90
2407;DHT22;37709;53.480;9.688;2022-11-13T14:17:41;8.50;99.90
2407;DHT22;37709;53.480;9.688;2022-11-13T14:20:26;8.50;99.90
2407;DHT22;37709;53.480;9.688;2022-11-13T14:23:35;8.50;99.90
2407;DHT22;37709;53.480;9.688;2022-11-13T14:26:22;8.50;99.90
2407;DHT22;37709;53.480;9.688;2022-11-13T14:29:20;8.50;99.90
2407;DHT22;37709;53.480;9.688;2022-11-13T14:32:13;8.50;99.90
2407;DHT22;37709;53.480;9.688;2022-11-13T14:35:02;8.50;99.90
2407;DHT22;37709;53.480;9.688;2022-11-13T14:37:50;8.50;99.90
2407;DHT22;37709;53.480;9.688;2022-11-13T14:40:37;8.50;99.90
2407;DHT22;37709;53.480;9.688;2022-11-13T14:43:28;8.50;99.90
2407;DHT22;37709;53.480;9.688;2022-11-13T14:46:35;8.40;99.90
2407;DHT22;37709;53.480;9.688;2022-11-13T14:49:28;8.40;99.90
2407;DHT22;37709;53.480;9.688;2022-11-13T14:55:18;8.30;99.90
2407;DHT22;37709;53.480;9.688;2022-11-13T14:58:05;8.30;99.90
2407;DHT22;37709;53.480;9.688;2022-11-13T15:00:51;8.30;99.90
2407;DHT22;37709;53.480;9.688;2022-11-13T15:03:37;8.20;99.90
2407;DHT22;37709;53.480;9.688;2022-11-13T15:06:25;8.20;99.90
2407;DHT22;37709;53.480;9.688;2022-11-13T15:09:14;8.20;99.90
2407;DHT22;37709;53.480;9.688;2022-11-13T15:12:01;8.20;99.90
2407;DHT22;37709;53.480;9.688;2022-11-13T15:14:47;8.20;99.90
2407;DHT22;37709;53.480;9.688;2022-11-13T15:17:33;8.20;99.90
2407;DHT22;37709;53.480;9.688;2022-11-13T15:20:25;8.20;99.90
2407;DHT22;37709;53.480;9.688;2022-11-13T15:23:14;8.10;99.90
2407;DHT22;37709;53.480;9.688;2022-11-13T15:26:01;8.10;99.90
2407;DHT22;37709;53.480;9.688;2022-11-13T15:28:48;8.10;99.90
2407;DHT22;37709;53.480;9.688;2022-11-13T15:31:42;8.10;99.90
2407;DHT22;37709;53.480;9.688;2022-11-13T15:34:29;8.10;99.90
2407;DHT22;37709;53.480;9.688;2022-11-13T15:37:16;8.10;99.90
2407;DHT22;37709;53.480;9.688;2022-11-13T15:40:02;8.10;99.90
2407;DHT22;37709;53.480;9.688;2022-11-13T15:42:49;8.10;99.90
2407;DHT22;37709;53.480;9.688;2022-11-13T15:45:36;8.10;99.90
2407;DHT22;37709;53.480;9.688;2022-11-13T15:48:28;8.20;99.90
2407;DHT22;37709;53.480;9.688;2022-11-13T15:51:19;8.20;99.90
2407;DHT22;37709;53.480;9.688;2022-11-13T15:57:32;8.20;99.90
2407;DHT22;37709;53.480;9.688;2022-11-13T16:00:20;8.10;99.90
2407;DHT22;37709;53.480;9.688;2022-11-13T16:03:09;8.20;99.90
2407;DHT22;37709;53.480;9.688;2022-11-13T16:05:58;8.20;99.90
2407;DHT22;37709;53.480;9.688;2022-11-13T16:08:44;8.20;99.90
2407;DHT22;37709;53.480;9.688;2022-11-13T16:11:31;8.10;99.90
2407;DHT22;37709;53.480;9.688;2022-11-13T16:14:18;8.10;99.90
2407;DHT22;37709;53.480;9.688;2022-11-13T16:17:17;8.20;99.90
2407;DHT22;37709;53.480;9.688;2022-11-13T16:20:05;8.20;99.90
2407;DHT22;37709;53.480;9.688;2022-11-13T16:22:52;8.20;99.90
2407;DHT22;37709;53.480;9.688;2022-11-13T16:25:38;8.20;99.90
2407;DHT22;37709;53.480;9.688;2022-11-13T16:28:25;8.20;99.90
2407;DHT22;37709;53.480;9.688;2022-11-13T16:31:11;8.20;99.90
2407;DHT22;37709;53.480;9.688;2022-11-13T16:33:56;8.20;99.90
2407;DHT22;37709;53.480;9.688;2022-11-13T16:36:42;8.20;99.90
2407;DHT22;37709;53.480;9.688;2022-11-13T16:39:29;8.20;99.90
2407;DHT22;37709;53.480;9.688;2022-11-13T16:42:16;8.10;99.90
2407;DHT22;37709;53.480;9.688;2022-11-13T16:45:02;8.10;99.90
2407;DHT22;37709;53.480;9.688;2022-11-13T16:47:48;8.10;99.90
2407;DHT22;37709;53.480;9.688;2022-11-13T16:50:35;8.10;99.90
2407;DHT22;37709;53.480;9.688;2022-11-13T16:53:24;8.10;99.90
2407;DHT22;37709;53.480;9.688;2022-11-13T16:56:14;8.10;99.90
2407;DHT22;37709;53.480;9.688;2022-11-13T16:59:01;8.10;99.90
2407;DHT22;37709;53.480;9.688;2022-11-13T17:01:52;8.10;99.90
2407;DHT22;37709;53.480;9.688;2022-11-13T17:04:39;8.10;99.90
2407;DHT22;37709;53.480;9.688;2022-11-13T17:07:26;8.20;99.90
2407;DHT22;37709;53.480;9.688;2022-11-13T17:10:14;8.10;99.90
2407;DHT22;37709;53.480;9.688;2022-11-13T17:13:17;8.20;99.90
2407;DHT22;37709;53.480;9.688;2022-11-13T17:16:03;8.20;99.90
2407;DHT22;37709;53.480;9.688;2022-11-13T17:18:50;8.20;99.90
2407;DHT22;37709;53.480;9.688;2022-11-13T17:21:38;8.20;99.90
2407;DHT22;37709;53.480;9.688;2022-11-13T17:24:29;8.20;99.90
2407;DHT22;37709;53.480;9.688;2022-11-13T17:27:16;8.30;99.90
2407;DHT22;37709;53.480;9.688;2022-11-13T17:30:02;8.30;99.90
2407;DHT22;37709;53.480;9.688;2022-11-13T17:32:48;8.30;99.90
2407;DHT22;37709;53.480;9.688;2022-11-13T17:36:00;8.30;99.90
2407;DHT22;37709;53.480;9.688;2022-11-13T17:38:47;8.40;99.90
2407;DHT22;37709;53.480;9.688;2022-11-13T17:41:33;8.40;99.90
2407;DHT22;37709;53.480;9.688;2022-11-13T17:44:19;8.40;99.90
2407;DHT22;37709;53.480;9.688;2022-11-13T17:47:05;8.40;99.90
2407;DHT22;37709;53.480;9.688;2022-11-13T17:49:51;8.40;99.90
2407;DHT22;37709;53.480;9.688;2022-11-13T17:52:38;8.40;99.90
2407;DHT22;37709;53.480;9.688;2022-11-13T17:55:24;8.40;99.90
2407;DHT22;37709;53.480;9.688;2022-11-13T17:58:10;8.50;99.90
2407;DHT22;37709;53.480;9.688;2022-11-13T18:01:05;8.40;99.90
2407;DHT22;37709;53.480;9.688;2022-11-13T18:03:55;8.40;99.90
2407;DHT22;37709;53.480;9.688;2022-11-13T18:06:41;8.50;99.90
2407;DHT22;37709;53.480;9.688;2022-11-13T18:09:27;8.50;99.90
2407;DHT22;37709;53.480;9.688;2022-11-13T18:12:13;8.50;99.90
2407;DHT22;37709;53.480;9.688;2022-11-13T18:14:59;8.50;99.90
2407;DHT22;37709;53.480;9.688;2022-11-13T18:17:46;8.50;99.90
2407;DHT22;37709;53.480;9.688;2022-11-13T18:20:34;8.50;99.90
2407;DHT22;37709;53.480;9.688;2022-11-13T18:23:20;8.50;99.90
2407;DHT22;37709;53.480;9.688;2022-11-13T18:26:14;8.50;99.90
2407;DHT22;37709;53.480;9.688;2022-11-13T18:29:00;8.50;99.90
2407;DHT22;37709;53.480;9.688;2022-11-13T18:31:48;8.50;99.90
2407;DHT22;37709;53.480;9.688;2022-11-13T18:34:34;8.60;99.90
2407;DHT22;37709;53.480;9.688;2022-11-13T18:37:21;8.60;99.90
2407;DHT22;37709;53.480;9.688;2022-11-13T18:40:07;8.60;99.90
2407;DHT22;37709;53.480;9.688;2022-11-13T18:42:55;8.60;99.90
2407;DHT22;37709;53.480;9.688;2022-11-13T18:45:41;8.60;99.90
2407;DHT22;37709;53.480;9.688;2022-11-13T18:48:35;8.60;99.90
2407;DHT22;37709;53.480;9.688;2022-11-13T18:51:24;8.60;99.90
2407;DHT22;37709;53.480;9.688;2022-11-13T18:54:10;8.60;99.90
2407;DHT22;37709;53.480;9.688;2022-11-13T18:56:57;8.70;99.90
2407;DHT22;37709;53.480;9.688;2022-11-13T18:59:44;8.70;99.90
2407;DHT22;37709;53.480;9.688;2022-11-13T19:02:30;8.70;99.90
2407;DHT22;37709;53.480;9.688;2022-11-13T19:05:16;8.70;99.90
2407;DHT22;37709;53.480;9.688;2022-11-13T19:08:02;8.70;99.90
2407;DHT22;37709;53.480;9.688;2022-11-13T19:10:48;8.70;99.90
2407;DHT22;37709;53.480;9.688;2022-11-13T19:13:35;8.70;99.90
2407;DHT22;37709;53.480;9.688;2022-11-13T19:16:25;8.70;99.90
2407;DHT22;37709;53.480;9.688;2022-11-13T19:19:17;8.70;99.90
2407;DHT22;37709;53.480;9.688;2022-11-13T19:22:04;8.70;99.90
2407;DHT22;37709;53.480;9.688;2022-11-13T19:24:49;8.70;99.90
2407;DHT22;37709;53.480;9.688;2022-11-13T19:27:36;8.80;99.90
2407;DHT22;37709;53.480;9.688;2022-11-13T19:30:22;8.80;99.90